sensor_id;sensor_type;location;lat;lon;timestamp;temperature;humidity
44190;DHT22;29856;52.144;5.430;2023-06-22T00:01:05;21.10;99.90
44190;DHT22;29856;52.144;5.430;2023-06-22T00:03:31;21.10;99.90
44190;DHT22;29856;52.144;5.430;2023-06-22T00:05:56;21.10;99.90
44190;DHT22;29856;52.144;5.430;2023-06-22T00:08:22;21.10;99.90
44190;DHT22;29856;52.144;5.430;2023-06-22T00:10:47;21.10;99.90
44190;DHT22;29856;52.144;5.430;2023-06-22T00:13:13;21.10;99.90
44190;DHT22;29856;52.144;5.430;2023-06-22T00:15:41;21.10;99.90
44190;DHT22;29856;52.144;5.430;2023-06-22T00:18:07;21.00;99.90
44190;DHT22;29856;52.144;5.430;2023-06-22T00:20:33;21.00;99.90
44190;DHT22;29856;52.144;5.430;2023-06-22T00:22:59;21.00;99.90
44190;DHT22;29856;52.144;5.430;2023-06-22T00:25:26;21.00;99.90
44190;DHT22;29856;52.144;5.430;2023-06-22T00:27:51;21.00;99.90
44190;DHT22;29856;52.144;5.430;2023-06-22T00:30:17;20.90;99.90
44190;DHT22;29856;52.144;5.430;2023-06-22T00:32:44;20.90;99.90
44190;DHT22;29856;52.144;5.430;2023-06-22T00:35:10;20.80;99.90
44190;DHT22;29856;52.144;5.430;2023-06-22T00:37:36;20.80;99.90
44190;DHT22;29856;52.144;5.430;2023-06-22T00:40:02;20.70;99.90
44190;DHT22;29856;52.144;5.430;2023-06-22T00:42:29;20.70;99.90
44190;DHT22;29856;52.144;5.430;2023-06-22T00:44:54;20.70;99.90
44190;DHT22;29856;52.144;5.430;2023-06-22T00:47:20;20.70;99.90
44190;DHT22;29856;52.144;5.430;2023-06-22T00:49:47;20.70;99.90
44190;DHT22;29856;52.144;5.430;2023-06-22T00:52:14;20.70;99.90
44190;DHT22;29856;52.144;5.430;2023-06-22T00:54:43;20.70;99.90
44190;DHT22;29856;52.144;5.430;2023-06-22T00:57:09;20.70;99.90
44190;DHT22;29856;52.144;5.430;2023-06-22T00:59:35;20.60;99.90
44190;DHT22;29856;52.144;5.430;2023-06-22T01:02:01;20.60;99.90
44190;DHT22;29856;52.144;5.430;2023-06-22T01:04:36;20.60;99.90
44190;DHT22;29856;52.144;5.430;2023-06-22T01:12:37;20.40;99.90
44190;DHT22;29856;52.144;5.430;2023-06-22T01:15:10;20.30;99.90
44190;DHT22;29856;52.144;5.430;2023-06-22T01:17:40;20.30;99.90
44190;DHT22;29856;52.144;5.430;2023-06-22T01:20:08;20.30;99.90
44190;DHT22;29856;52.144;5.430;2023-06-22T01:25:24;20.20;99.90
44190;DHT22;29856;52.144;5.430;2023-06-22T01:28:10;20.30;99.90
44190;DHT22;29856;52.144;5.430;2023-06-22T01:30:41;20.10;99.90
44190;DHT22;29856;52.144;5.430;2023-06-22T01:33:07;19.90;99.90
44190;DHT22;29856;52.144;5.430;2023-06-22T01:35:36;19.90;99.90
44190;DHT22;29856;52.144;5.430;2023-06-22T01:38:02;19.90;99.90
44190;DHT22;29856;52.144;5.430;2023-06-22T01:40:28;19.90;99.90
44190;DHT22;29856;52.144;5.430;2023-06-22T01:42:55;19.90;99.90
44190;DHT22;29856;52.144;5.430;2023-06-22T01:45:21;19.90;99.90
44190;DHT22;29856;52.144;5.430;2023-06-22T01:47:47;19.90;99.90
44190;DHT22;29856;52.144;5.430;2023-06-22T01:50:12;19.90;99.90
44190;DHT22;29856;52.144;5.430;2023-06-22T01:52:38;19.90;99.90
44190;DHT22;29856;52.144;5.430;2023-06-22T01:55:04;19.90;99.90
44190;DHT22;29856;52.144;5.430;2023-06-22T01:57:29;19.80;99.90
44190;DHT22;29856;52.144;5.430;2023-06-22T02:02:39;19.80;99.90
44190;DHT22;29856;52.144;5.430;2023-06-22T02:05:09;19.80;99.90
44190;DHT22;29856;52.144;5.430;2023-06-22T02:07:46;19.80;99.90
44190;DHT22;29856;52.144;5.430;2023-06-22T02:10:14;19.70;99.90
44190;DHT22;29856;52.144;5.430;2023-06-22T02:12:42;19.70;99.90
44190;DHT22;29856;52.144;5.430;2023-06-22T02:15:09;19.60;99.90
44190;DHT22;29856;52.144;5.430;2023-06-22T02:17:35;19.60;99.90
44190;DHT22;29856;52.144;5.430;2023-06-22T02:20:04;19.60;99.90
44190;DHT22;29856;52.144;5.430;2023-06-22T02:22:30;19.50;99.90
44190;DHT22;29856;52.144;5.430;2023-06-22T02:24:56;19.50;99.90
44190;DHT22;29856;52.144;5.430;2023-06-22T02:27:21;19.50;99.90
44190;DHT22;29856;52.144;5.430;2023-06-22T02:29:47;19.60;99.90
44190;DHT22;29856;52.144;5.430;2023-06-22T02:32:12;19.60;99.90
44190;DHT22;29856;52.144;5.430;2023-06-22T02:34:38;19.60;99.90
44190;DHT22;29856;52.144;5.430;2023-06-22T02:37:04;19.60;99.90
44190;DHT22;29856;52.144;5.430;2023-06-22T02:39:29;19.50;99.90
44190;DHT22;29856;52.144;5.430;2023-06-22T02:41:55;19.60;99.90
44190;DHT22;29856;52.144;5.430;2023-06-22T02:44:20;19.60;99.90
44190;DHT22;29856;52.144;5.430;2023-06-22T02:46:47;19.60;99.90
44190;DHT22;29856;52.144;5.430;2023-06-22T02:49:12;19.50;99.90
44190;DHT22;29856;52.144;5.430;2023-06-22T02:51:41;19.50;99.90
44190;DHT22;29856;52.144;5.430;2023-06-22T02:54:06;19.40;99.90
44190;DHT22;29856;52.144;5.430;2023-06-22T02:56:32;19.30;99.90
44190;DHT22;29856;52.144;5.430;2023-06-22T02:58:57;19.30;99.90
44190;DHT22;29856;52.144;5.430;2023-06-22T03:01:23;19.20;99.90
44190;DHT22;29856;52.144;5.430;2023-06-22T03:03:48;19.20;99.90
44190;DHT22;29856;52.144;5.430;2023-06-22T03:06:14;19.20;99.90
44190;DHT22;29856;52.144;5.430;2023-06-22T03:08:39;19.10;99.90
44190;DHT22;29856;52.144;5.430;2023-06-22T03:11:05;19.00;99.90
44190;DHT22;29856;52.144;5.430;2023-06-22T03:13:30;18.90;99.90
44190;DHT22;29856;52.144;5.430;2023-06-22T03:15:56;18.80;99.90
44190;DHT22;29856;52.144;5.430;2023-06-22T03:18:21;18.70;99.90
44190;DHT22;29856;52.144;5.430;2023-06-22T03:20:46;18.80;99.90
44190;DHT22;29856;52.144;5.430;2023-06-22T03:23:12;18.80;99.90
44190;DHT22;29856;52.144;5.430;2023-06-22T03:25:37;18.80;99.90
44190;DHT22;29856;52.144;5.430;2023-06-22T03:28:03;18.80;99.90
44190;DHT22;29856;52.144;5.430;2023-06-22T03:30:28;18.80;99.90
44190;DHT22;29856;52.144;5.430;2023-06-22T03:32:54;18.80;99.90
44190;DHT22;29856;52.144;5.430;2023-06-22T03:35:19;18.80;99.90
44190;DHT22;29856;52.144;5.430;2023-06-22T03:37:45;18.80;99.90
44190;DHT22;29856;52.144;5.430;2023-06-22T03:40:11;18.80;99.90
44190;DHT22;29856;52.144;5.430;2023-06-22T03:42:36;18.80;99.90
44190;DHT22;29856;52.144;5.430;2023-06-22T03:45:03;18.70;99.90
44190;DHT22;29856;52.144;5.430;2023-06-22T03:47:28;18.70;99.90
44190;DHT22;29856;52.144;5.430;2023-06-22T03:49:54;18.60;99.90
44190;DHT22;29856;52.144;5.430;2023-06-22T03:52:19;18.60;99.90
44190;DHT22;29856;52.144;5.430;2023-06-22T03:54:45;18.40;99.90
44190;DHT22;29856;52.144;5.430;2023-06-22T03:57:10;18.40;99.90
44190;DHT22;29856;52.144;5.430;2023-06-22T03:59:36;18.40;99.90
44190;DHT22;29856;52.144;5.430;2023-06-22T04:02:01;18.40;99.90
44190;DHT22;29856;52.144;5.430;2023-06-22T04:04:27;18.50;99.90
44190;DHT22;29856;52.144;5.430;2023-06-22T04:06:52;18.50;99.90
44190;DHT22;29856;52.144;5.430;2023-06-22T04:09:18;18.40;99.90
44190;DHT22;29856;52.144;5.430;2023-06-22T04:11:43;18.40;99.90
44190;DHT22;29856;52.144;5.430;2023-06-22T04:14:09;18.30;99.90
44190;DHT22;29856;52.144;5.430;2023-06-22T04:16:34;18.10;99.90
44190;DHT22;29856;52.144;5.430;2023-06-22T04:19:00;18.10;99.90
44190;DHT22;29856;52.144;5.430;2023-06-22T04:21:25;18.10;99.90
44190;DHT22;29856;52.144;5.430;2023-06-22T04:23:51;18.10;99.90
44190;DHT22;29856;52.144;5.430;2023-06-22T04:26:16;18.20;99.90
44190;DHT22;29856;52.144;5.430;2023-06-22T04:28:42;18.20;99.90
44190;DHT22;29856;52.144;5.430;2023-06-22T04:31:07;18.30;99.90
44190;DHT22;29856;52.144;5.430;2023-06-22T04:33:33;18.40;99.90
44190;DHT22;29856;52.144;5.430;2023-06-22T04:35:59;18.40;99.90
44190;DHT22;29856;52.144;5.430;2023-06-22T04:38:24;18.40;99.90
44190;DHT22;29856;52.144;5.430;2023-06-22T04:40:50;18.50;99.90
44190;DHT22;29856;52.144;5.430;2023-06-22T04:43:16;18.50;99.90
44190;DHT22;29856;52.144;5.430;2023-06-22T04:45:42;18.60;99.90
44190;DHT22;29856;52.144;5.430;2023-06-22T04:48:08;18.60;99.90
44190;DHT22;29856;52.144;5.430;2023-06-22T04:50:33;18.50;99.90
44190;DHT22;29856;52.144;5.430;2023-06-22T04:52:59;18.60;99.90
44190;DHT22;29856;52.144;5.430;2023-06-22T04:55:24;18.70;99.90
44190;DHT22;29856;52.144;5.430;2023-06-22T04:57:50;18.80;99.90
44190;DHT22;29856;52.144;5.430;2023-06-22T05:00:17;18.90;99.90
44190;DHT22;29856;52.144;5.430;2023-06-22T05:02:44;19.00;99.90
44190;DHT22;29856;52.144;5.430;2023-06-22T05:05:10;18.90;99.90
44190;DHT22;29856;52.144;5.430;2023-06-22T05:07:36;19.10;99.90
44190;DHT22;29856;52.144;5.430;2023-06-22T05:10:03;19.00;99.90
44190;DHT22;29856;52.144;5.430;2023-06-22T05:12:29;19.00;99.90
44190;DHT22;29856;52.144;5.430;2023-06-22T05:14:55;19.00;99.90
44190;DHT22;29856;52.144;5.430;2023-06-22T05:17:20;19.10;99.90
44190;DHT22;29856;52.144;5.430;2023-06-22T05:19:46;19.20;99.90
44190;DHT22;29856;52.144;5.430;2023-06-22T05:22:11;19.30;99.90
44190;DHT22;29856;52.144;5.430;2023-06-22T05:24:37;19.30;99.90
44190;DHT22;29856;52.144;5.430;2023-06-22T05:27:02;19.50;99.90
44190;DHT22;29856;52.144;5.430;2023-06-22T05:29:28;19.50;99.90
44190;DHT22;29856;52.144;5.430;2023-06-22T05:31:53;19.30;99.90
44190;DHT22;29856;52.144;5.430;2023-06-22T05:34:19;19.30;99.90
44190;DHT22;29856;52.144;5.430;2023-06-22T05:36:44;19.40;99.90
44190;DHT22;29856;52.144;5.430;2023-06-22T05:39:14;19.50;99.90
44190;DHT22;29856;52.144;5.430;2023-06-22T05:41:40;19.80;99.90
44190;DHT22;29856;52.144;5.430;2023-06-22T05:44:05;19.90;99.90
44190;DHT22;29856;52.144;5.430;2023-06-22T05:46:31;20.00;99.90
44190;DHT22;29856;52.144;5.430;2023-06-22T05:48:57;20.00;99.90
44190;DHT22;29856;52.144;5.430;2023-06-22T05:51:22;20.10;99.90
44190;DHT22;29856;52.144;5.430;2023-06-22T05:53:48;20.10;99.90
44190;DHT22;29856;52.144;5.430;2023-06-22T05:56:13;20.20;99.90
44190;DHT22;29856;52.144;5.430;2023-06-22T05:58:39;20.30;99.90
44190;DHT22;29856;52.144;5.430;2023-06-22T06:01:04;20.40;99.90
44190;DHT22;29856;52.144;5.430;2023-06-22T06:03:29;20.40;99.90
44190;DHT22;29856;52.144;5.430;2023-06-22T06:05:55;20.70;99.90
44190;DHT22;29856;52.144;5.430;2023-06-22T06:08:20;21.00;99.90
44190;DHT22;29856;52.144;5.430;2023-06-22T06:10:46;21.00;99.90
44190;DHT22;29856;52.144;5.430;2023-06-22T06:13:11;21.10;99.90
44190;DHT22;29856;52.144;5.430;2023-06-22T06:15:37;21.30;99.90
44190;DHT22;29856;52.144;5.430;2023-06-22T06:18:03;21.40;99.90
44190;DHT22;29856;52.144;5.430;2023-06-22T06:20:28;21.40;99.90
44190;DHT22;29856;52.144;5.430;2023-06-22T06:22:55;21.60;99.90
44190;DHT22;29856;52.144;5.430;2023-06-22T06:25:20;21.80;99.90
44190;DHT22;29856;52.144;5.430;2023-06-22T06:27:46;21.90;99.90
44190;DHT22;29856;52.144;5.430;2023-06-22T06:30:13;21.90;99.90
44190;DHT22;29856;52.144;5.430;2023-06-22T06:32:39;22.20;99.90
44190;DHT22;29856;52.144;5.430;2023-06-22T06:35:09;22.30;99.90
44190;DHT22;29856;52.144;5.430;2023-06-22T06:37:42;22.20;99.90
44190;DHT22;29856;52.144;5.430;2023-06-22T06:40:09;22.10;99.90
44190;DHT22;29856;52.144;5.430;2023-06-22T06:42:35;22.40;99.90
44190;DHT22;29856;52.144;5.430;2023-06-22T06:45:00;22.60;99.90
44190;DHT22;29856;52.144;5.430;2023-06-22T06:47:26;22.70;99.90
44190;DHT22;29856;52.144;5.430;2023-06-22T06:49:51;22.60;99.90
44190;DHT22;29856;52.144;5.430;2023-06-22T06:52:17;22.80;99.90
44190;DHT22;29856;52.144;5.430;2023-06-22T06:54:42;22.90;99.90
44190;DHT22;29856;52.144;5.430;2023-06-22T06:57:08;23.00;99.90
44190;DHT22;29856;52.144;5.430;2023-06-22T06:59:33;23.10;99.90
44190;DHT22;29856;52.144;5.430;2023-06-22T07:01:59;23.10;99.90
44190;DHT22;29856;52.144;5.430;2023-06-22T07:04:24;23.10;99.90
44190;DHT22;29856;52.144;5.430;2023-06-22T07:06:50;23.40;99.90
44190;DHT22;29856;52.144;5.430;2023-06-22T07:09:15;23.50;99.90
44190;DHT22;29856;52.144;5.430;2023-06-22T07:11:41;23.50;99.90
44190;DHT22;29856;52.144;5.430;2023-06-22T07:14:06;23.50;99.90
44190;DHT22;29856;52.144;5.430;2023-06-22T07:16:31;23.50;99.90
44190;DHT22;29856;52.144;5.430;2023-06-22T07:18:57;23.60;99.90
44190;DHT22;29856;52.144;5.430;2023-06-22T07:21:22;23.70;99.90
44190;DHT22;29856;52.144;5.430;2023-06-22T07:23:48;23.60;99.90
44190;DHT22;29856;52.144;5.430;2023-06-22T07:26:13;23.50;99.90
44190;DHT22;29856;52.144;5.430;2023-06-22T07:28:39;23.40;99.90
44190;DHT22;29856;52.144;5.430;2023-06-22T07:31:04;23.50;99.90
44190;DHT22;29856;52.144;5.430;2023-06-22T07:33:30;23.60;99.90
44190;DHT22;29856;52.144;5.430;2023-06-22T07:35:55;23.70;99.90
44190;DHT22;29856;52.144;5.430;2023-06-22T07:38:21;23.70;99.90
44190;DHT22;29856;52.144;5.430;2023-06-22T07:40:47;23.80;99.90
44190;DHT22;29856;52.144;5.430;2023-06-22T07:43:13;23.80;99.90
44190;DHT22;29856;52.144;5.430;2023-06-22T07:45:38;24.10;99.90
44190;DHT22;29856;52.144;5.430;2023-06-22T07:48:04;24.10;99.90
44190;DHT22;29856;52.144;5.430;2023-06-22T07:50:29;24.20;99.90
44190;DHT22;29856;52.144;5.430;2023-06-22T07:52:55;24.10;99.90
44190;DHT22;29856;52.144;5.430;2023-06-22T07:55:20;24.10;99.90
44190;DHT22;29856;52.144;5.430;2023-06-22T07:57:48;24.10;99.90
44190;DHT22;29856;52.144;5.430;2023-06-22T08:00:14;24.10;99.90
44190;DHT22;29856;52.144;5.430;2023-06-22T08:02:40;24.30;99.90
44190;DHT22;29856;52.144;5.430;2023-06-22T08:05:06;24.50;99.90
44190;DHT22;29856;52.144;5.430;2023-06-22T08:07:32;24.60;99.90
44190;DHT22;29856;52.144;5.430;2023-06-22T08:09:57;24.70;99.90
44190;DHT22;29856;52.144;5.430;2023-06-22T08:12:22;24.90;99.90
44190;DHT22;29856;52.144;5.430;2023-06-22T08:14:48;25.00;99.90
44190;DHT22;29856;52.144;5.430;2023-06-22T08:17:13;24.80;99.90
44190;DHT22;29856;52.144;5.430;2023-06-22T08:19:39;24.90;99.90
44190;DHT22;29856;52.144;5.430;2023-06-22T08:22:05;24.90;99.90
44190;DHT22;29856;52.144;5.430;2023-06-22T08:24:31;25.10;99.90
44190;DHT22;29856;52.144;5.430;2023-06-22T08:26:56;25.10;99.90
44190;DHT22;29856;52.144;5.430;2023-06-22T08:29:22;25.00;99.90
44190;DHT22;29856;52.144;5.430;2023-06-22T08:31:47;25.10;99.90
44190;DHT22;29856;52.144;5.430;2023-06-22T08:34:13;24.90;99.90
44190;DHT22;29856;52.144;5.430;2023-06-22T08:36:38;25.10;99.90
44190;DHT22;29856;52.144;5.430;2023-06-22T08:39:04;25.20;99.90
44190;DHT22;29856;52.144;5.430;2023-06-22T08:41:29;25.30;99.90
44190;DHT22;29856;52.144;5.430;2023-06-22T08:43:55;25.40;99.90
44190;DHT22;29856;52.144;5.430;2023-06-22T08:46:20;25.50;99.90
44190;DHT22;29856;52.144;5.430;2023-06-22T08:48:46;25.60;99.90
44190;DHT22;29856;52.144;5.430;2023-06-22T08:51:11;25.70;99.90
44190;DHT22;29856;52.144;5.430;2023-06-22T08:53:37;25.50;99.90
44190;DHT22;29856;52.144;5.430;2023-06-22T08:56:02;25.80;99.90
44190;DHT22;29856;52.144;5.430;2023-06-22T08:58:28;25.80;99.90
44190;DHT22;29856;52.144;5.430;2023-06-22T09:00:53;25.90;99.90
44190;DHT22;29856;52.144;5.430;2023-06-22T09:03:19;26.00;99.90
44190;DHT22;29856;52.144;5.430;2023-06-22T09:05:44;26.20;99.90
44190;DHT22;29856;52.144;5.430;2023-06-22T09:08:11;26.30;99.90
44190;DHT22;29856;52.144;5.430;2023-06-22T09:10:37;26.50;99.90
44190;DHT22;29856;52.144;5.430;2023-06-22T09:13:02;26.40;99.90
44190;DHT22;29856;52.144;5.430;2023-06-22T09:15:27;26.40;99.90
44190;DHT22;29856;52.144;5.430;2023-06-22T09:17:53;26.40;99.90
44190;DHT22;29856;52.144;5.430;2023-06-22T09:20:18;26.50;99.90
44190;DHT22;29856;52.144;5.430;2023-06-22T09:22:44;26.70;99.90
44190;DHT22;29856;52.144;5.430;2023-06-22T09:25:09;26.80;99.90
44190;DHT22;29856;52.144;5.430;2023-06-22T09:27:35;26.90;99.90
44190;DHT22;29856;52.144;5.430;2023-06-22T09:30:00;27.00;99.90
44190;DHT22;29856;52.144;5.430;2023-06-22T09:32:26;27.00;99.30
44190;DHT22;29856;52.144;5.430;2023-06-22T09:34:51;27.20;99.00
44190;DHT22;29856;52.144;5.430;2023-06-22T09:37:17;27.40;99.40
44190;DHT22;29856;52.144;5.430;2023-06-22T09:39:43;27.40;97.00
44190;DHT22;29856;52.144;5.430;2023-06-22T09:42:08;27.40;95.70
44190;DHT22;29856;52.144;5.430;2023-06-22T09:44:34;27.50;97.30
44190;DHT22;29856;52.144;5.430;2023-06-22T09:46:59;27.50;97.00
44190;DHT22;29856;52.144;5.430;2023-06-22T09:49:25;27.80;97.80
44190;DHT22;29856;52.144;5.430;2023-06-22T09:51:51;27.90;96.80
44190;DHT22;29856;52.144;5.430;2023-06-22T09:54:16;28.00;96.60
44190;DHT22;29856;52.144;5.430;2023-06-22T09:56:42;27.90;96.20
44190;DHT22;29856;52.144;5.430;2023-06-22T09:59:08;27.60;96.10
44190;DHT22;29856;52.144;5.430;2023-06-22T10:01:33;27.70;97.00
44190;DHT22;29856;52.144;5.430;2023-06-22T10:03:59;27.80;96.90
44190;DHT22;29856;52.144;5.430;2023-06-22T10:06:24;27.70;96.50
44190;DHT22;29856;52.144;5.430;2023-06-22T10:08:50;27.60;96.70
44190;DHT22;29856;52.144;5.430;2023-06-22T10:11:16;27.50;97.00
44190;DHT22;29856;52.144;5.430;2023-06-22T10:13:42;27.40;96.00
44190;DHT22;29856;52.144;5.430;2023-06-22T10:16:07;27.20;95.60
44190;DHT22;29856;52.144;5.430;2023-06-22T10:18:33;27.20;96.00
44190;DHT22;29856;52.144;5.430;2023-06-22T10:20:58;27.10;96.30
44190;DHT22;29856;52.144;5.430;2023-06-22T10:23:23;27.10;96.30
44190;DHT22;29856;52.144;5.430;2023-06-22T10:25:49;27.00;96.30
44190;DHT22;29856;52.144;5.430;2023-06-22T10:28:15;26.90;96.40
44190;DHT22;29856;52.144;5.430;2023-06-22T10:30:41;26.90;96.50
44190;DHT22;29856;52.144;5.430;2023-06-22T10:33:11;26.90;96.40
44190;DHT22;29856;52.144;5.430;2023-06-22T10:35:37;26.90;96.60
44190;DHT22;29856;52.144;5.430;2023-06-22T10:38:03;26.90;97.20
44190;DHT22;29856;52.144;5.430;2023-06-22T10:40:28;26.90;97.70
44190;DHT22;29856;52.144;5.430;2023-06-22T10:42:54;26.60;97.60
44190;DHT22;29856;52.144;5.430;2023-06-22T10:45:19;26.50;98.00
44190;DHT22;29856;52.144;5.430;2023-06-22T10:47:45;26.30;97.60
44190;DHT22;29856;52.144;5.430;2023-06-22T10:50:10;26.40;98.70
44190;DHT22;29856;52.144;5.430;2023-06-22T10:52:36;26.40;98.40
44190;DHT22;29856;52.144;5.430;2023-06-22T10:55:01;26.50;98.90
44190;DHT22;29856;52.144;5.430;2023-06-22T10:57:27;26.50;98.50
44190;DHT22;29856;52.144;5.430;2023-06-22T10:59:53;26.40;99.70
44190;DHT22;29856;52.144;5.430;2023-06-22T11:02:18;26.30;99.20
44190;DHT22;29856;52.144;5.430;2023-06-22T11:04:44;26.40;99.60
44190;DHT22;29856;52.144;5.430;2023-06-22T11:07:09;26.50;99.50
44190;DHT22;29856;52.144;5.430;2023-06-22T11:09:35;26.60;99.30
44190;DHT22;29856;52.144;5.430;2023-06-22T11:12:00;26.60;98.70
44190;DHT22;29856;52.144;5.430;2023-06-22T11:14:26;26.80;98.80
44190;DHT22;29856;52.144;5.430;2023-06-22T11:16:54;26.80;98.90
44190;DHT22;29856;52.144;5.430;2023-06-22T11:19:20;26.90;99.00
44190;DHT22;29856;52.144;5.430;2023-06-22T11:21:45;26.90;99.40
44190;DHT22;29856;52.144;5.430;2023-06-22T11:24:11;26.90;99.90
44190;DHT22;29856;52.144;5.430;2023-06-22T11:26:36;26.60;99.90
44190;DHT22;29856;52.144;5.430;2023-06-22T11:29:02;26.40;99.90
44190;DHT22;29856;52.144;5.430;2023-06-22T11:31:27;26.20;99.90
44190;DHT22;29856;52.144;5.430;2023-06-22T11:33:53;26.50;99.90
44190;DHT22;29856;52.144;5.430;2023-06-22T11:36:18;26.30;99.90
44190;DHT22;29856;52.144;5.430;2023-06-22T11:38:44;26.40;99.90
44190;DHT22;29856;52.144;5.430;2023-06-22T11:41:10;26.60;99.90
44190;DHT22;29856;52.144;5.430;2023-06-22T11:43:36;26.70;99.90
44190;DHT22;29856;52.144;5.430;2023-06-22T11:46:03;26.40;99.90
44190;DHT22;29856;52.144;5.430;2023-06-22T11:48:29;26.00;99.90
44190;DHT22;29856;52.144;5.430;2023-06-22T11:50:55;26.10;99.90
44190;DHT22;29856;52.144;5.430;2023-06-22T11:53:21;26.20;99.90
44190;DHT22;29856;52.144;5.430;2023-06-22T11:55:47;26.20;99.90
44190;DHT22;29856;52.144;5.430;2023-06-22T11:58:13;26.30;99.90
44190;DHT22;29856;52.144;5.430;2023-06-22T12:00:38;26.30;99.90
44190;DHT22;29856;52.144;5.430;2023-06-22T12:03:04;26.30;99.90
44190;DHT22;29856;52.144;5.430;2023-06-22T12:05:29;26.30;99.90
44190;DHT22;29856;52.144;5.430;2023-06-22T12:07:55;26.40;99.90
44190;DHT22;29856;52.144;5.430;2023-06-22T12:10:25;26.30;99.90
44190;DHT22;29856;52.144;5.430;2023-06-22T12:12:51;26.40;99.90
44190;DHT22;29856;52.144;5.430;2023-06-22T12:15:16;26.40;99.90
44190;DHT22;29856;52.144;5.430;2023-06-22T12:17:42;26.30;99.90
44190;DHT22;29856;52.144;5.430;2023-06-22T12:20:08;26.30;99.90
44190;DHT22;29856;52.144;5.430;2023-06-22T12:22:34;26.10;99.90
44190;DHT22;29856;52.144;5.430;2023-06-22T12:25:00;26.30;99.90
44190;DHT22;29856;52.144;5.430;2023-06-22T12:27:26;26.20;99.90
44190;DHT22;29856;52.144;5.430;2023-06-22T12:29:51;26.30;99.90
44190;DHT22;29856;52.144;5.430;2023-06-22T12:32:17;26.30;99.90
44190;DHT22;29856;52.144;5.430;2023-06-22T12:34:43;26.20;99.90
44190;DHT22;29856;52.144;5.430;2023-06-22T12:37:09;26.20;99.90
44190;DHT22;29856;52.144;5.430;2023-06-22T12:39:34;26.10;99.90
44190;DHT22;29856;52.144;5.430;2023-06-22T12:42:00;26.00;99.90
44190;DHT22;29856;52.144;5.430;2023-06-22T12:44:26;25.90;99.90
44190;DHT22;29856;52.144;5.430;2023-06-22T12:46:51;25.80;99.90
44190;DHT22;29856;52.144;5.430;2023-06-22T12:49:17;25.60;99.90
44190;DHT22;29856;52.144;5.430;2023-06-22T12:51:43;25.60;99.90
44190;DHT22;29856;52.144;5.430;2023-06-22T12:54:09;25.40;99.90
44190;DHT22;29856;52.144;5.430;2023-06-22T12:56:35;25.40;99.90
44190;DHT22;29856;52.144;5.430;2023-06-22T12:59:01;25.40;99.90
44190;DHT22;29856;52.144;5.430;2023-06-22T13:01:27;25.40;99.90
44190;DHT22;29856;52.144;5.430;2023-06-22T13:03:52;25.30;99.90
44190;DHT22;29856;52.144;5.430;2023-06-22T13:06:18;25.30;99.90
44190;DHT22;29856;52.144;5.430;2023-06-22T13:08:43;25.20;99.90
44190;DHT22;29856;52.144;5.430;2023-06-22T13:11:09;25.20;99.90
44190;DHT22;29856;52.144;5.430;2023-06-22T13:13:34;25.30;99.90
44190;DHT22;29856;52.144;5.430;2023-06-22T13:16:00;25.30;99.90
44190;DHT22;29856;52.144;5.430;2023-06-22T13:18:25;25.30;99.90
44190;DHT22;29856;52.144;5.430;2023-06-22T13:20:50;25.30;99.90
44190;DHT22;29856;52.144;5.430;2023-06-22T13:23:16;25.20;99.90
44190;DHT22;29856;52.144;5.430;2023-06-22T13:25:41;25.20;99.90
44190;DHT22;29856;52.144;5.430;2023-06-22T13:28:08;25.10;99.90
44190;DHT22;29856;52.144;5.430;2023-06-22T13:30:35;25.00;99.90
44190;DHT22;29856;52.144;5.430;2023-06-22T13:33:02;24.80;99.90
44190;DHT22;29856;52.144;5.430;2023-06-22T13:35:27;24.80;99.90
44190;DHT22;29856;52.144;5.430;2023-06-22T13:37:53;24.70;99.90
44190;DHT22;29856;52.144;5.430;2023-06-22T13:40:19;24.70;99.90
44190;DHT22;29856;52.144;5.430;2023-06-22T13:42:45;24.70;99.90
44190;DHT22;29856;52.144;5.430;2023-06-22T13:45:17;24.60;99.90
44190;DHT22;29856;52.144;5.430;2023-06-22T13:47:42;24.60;99.90
44190;DHT22;29856;52.144;5.430;2023-06-22T13:50:08;24.60;99.90
44190;DHT22;29856;52.144;5.430;2023-06-22T13:52:35;24.50;99.90
44190;DHT22;29856;52.144;5.430;2023-06-22T13:55:00;24.50;99.90
44190;DHT22;29856;52.144;5.430;2023-06-22T13:57:26;24.10;99.90
44190;DHT22;29856;52.144;5.430;2023-06-22T13:59:53;24.20;99.90
44190;DHT22;29856;52.144;5.430;2023-06-22T14:02:20;24.30;99.90
44190;DHT22;29856;52.144;5.430;2023-06-22T14:04:45;24.20;99.90
44190;DHT22;29856;52.144;5.430;2023-06-22T14:07:11;24.10;99.90
44190;DHT22;29856;52.144;5.430;2023-06-22T14:09:36;23.90;99.90
44190;DHT22;29856;52.144;5.430;2023-06-22T14:12:05;23.90;99.90
44190;DHT22;29856;52.144;5.430;2023-06-22T14:14:35;23.80;99.90
44190;DHT22;29856;52.144;5.430;2023-06-22T14:17:00;23.70;99.90
44190;DHT22;29856;52.144;5.430;2023-06-22T14:19:26;23.70;99.90
44190;DHT22;29856;52.144;5.430;2023-06-22T14:21:51;23.70;99.90
44190;DHT22;29856;52.144;5.430;2023-06-22T14:24:17;23.50;99.90
44190;DHT22;29856;52.144;5.430;2023-06-22T14:26:42;23.40;99.90
44190;DHT22;29856;52.144;5.430;2023-06-22T14:29:08;23.40;99.90
44190;DHT22;29856;52.144;5.430;2023-06-22T14:31:33;23.20;99.90
44190;DHT22;29856;52.144;5.430;2023-06-22T14:33:59;23.00;99.90
44190;DHT22;29856;52.144;5.430;2023-06-22T14:36:25;23.00;99.90
44190;DHT22;29856;52.144;5.430;2023-06-22T14:38:50;22.90;99.90
44190;DHT22;29856;52.144;5.430;2023-06-22T14:41:16;22.70;99.90
44190;DHT22;29856;52.144;5.430;2023-06-22T14:43:45;22.70;99.90
44190;DHT22;29856;52.144;5.430;2023-06-22T14:46:11;22.70;99.90
44190;DHT22;29856;52.144;5.430;2023-06-22T14:48:36;22.60;99.90
44190;DHT22;29856;52.144;5.430;2023-06-22T14:51:02;22.50;99.90
44190;DHT22;29856;52.144;5.430;2023-06-22T14:53:27;22.40;99.90
44190;DHT22;29856;52.144;5.430;2023-06-22T14:55:53;22.20;99.90
44190;DHT22;29856;52.144;5.430;2023-06-22T14:58:18;22.20;99.90
44190;DHT22;29856;52.144;5.430;2023-06-22T15:00:44;22.20;99.90
44190;DHT22;29856;52.144;5.430;2023-06-22T15:03:09;22.20;99.90
44190;DHT22;29856;52.144;5.430;2023-06-22T15:05:35;22.10;99.90
44190;DHT22;29856;52.144;5.430;2023-06-22T15:08:00;22.10;99.90
44190;DHT22;29856;52.144;5.430;2023-06-22T15:10:25;22.00;99.90
44190;DHT22;29856;52.144;5.430;2023-06-22T15:12:51;21.90;99.90
44190;DHT22;29856;52.144;5.430;2023-06-22T15:15:16;21.80;99.90
44190;DHT22;29856;52.144;5.430;2023-06-22T15:17:42;21.80;99.90
44190;DHT22;29856;52.144;5.430;2023-06-22T15:20:08;21.70;99.90
44190;DHT22;29856;52.144;5.430;2023-06-22T15:22:33;21.70;99.90
44190;DHT22;29856;52.144;5.430;2023-06-22T15:24:59;21.70;99.90
44190;DHT22;29856;52.144;5.430;2023-06-22T15:27:24;21.80;99.90
44190;DHT22;29856;52.144;5.430;2023-06-22T15:29:50;21.70;99.90
44190;DHT22;29856;52.144;5.430;2023-06-22T15:32:16;21.70;99.90